Time;durP1;ratioP1;P1;durP2;ratioP2;P2;SDS_P1;SDS_P2;PMS_P1;PMS_P2;Temp;Humidity;BMP_temperature;BMP_pressure;BME280_temperature;BME280_humidity;BME280_pressure;Samples;Min_cycle;Max_cycle;Signal;HPM_P1;HPM_P2
2022/06/15 00:00:59;;;;;;;400.02;381.33;;;12.50;99.90;;;;;;5033696;28;20353;-86
2022/06/15 00:03:27;;;;;;;396.17;378.17;;;12.60;99.90;;;;;;5034796;28;20630;-87
2022/06/15 00:06:06;;;;;;;369.52;352.77;;;12.60;99.90;;;;;;5029708;28;20102;-86
2022/06/15 00:08:32;;;;;;;396.02;377.95;;;12.60;99.90;;;;;;5035414;28;20033;-86
2022/06/15 00:11:07;;;;;;;388.80;370.35;;;12.60;99.90;;;;;;5043645;28;20481;-85
2022/06/15 00:13:33;;;;;;;378.55;360.83;;;12.60;99.90;;;;;;5078162;28;20021;-86
2022/06/15 00:15:58;;;;;;;385.75;367.83;;;12.50;99.90;;;;;;5040323;28;20036;-86
2022/06/15 00:18:28;;;;;;;370.50;354.20;;;12.50;99.90;;;;;;5037382;28;20021;-86
2022/06/15 00:20:55;;;;;;;364.73;348.67;;;12.40;99.90;;;;;;5039396;28;20038;-86
2022/06/15 00:23:20;;;;;;;384.48;367.05;;;12.50;99.90;;;;;;5037103;28;20064;-86
2022/06/15 00:25:52;;;;;;;380.13;362.92;;;12.40;99.90;;;;;;5030979;28;20053;-87
2022/06/15 00:28:19;;;;;;;365.15;348.40;;;12.40;99.90;;;;;;5033613;28;20628;-87
2022/06/15 00:30:49;;;;;;;374.10;357.05;;;12.40;99.90;;;;;;5031867;28;20076;-87
2022/06/15 00:33:14;;;;;;;374.70;357.92;;;12.40;99.90;;;;;;5030412;28;20030;-86
2022/06/15 00:35:40;;;;;;;387.00;369.95;;;12.40;99.90;;;;;;5012157;28;20393;-87
2022/06/15 00:38:07;;;;;;;388.67;371.05;;;12.40;99.90;;;;;;5031454;28;20040;-86
2022/06/15 00:40:34;;;;;;;394.92;376.77;;;12.30;99.90;;;;;;5045633;28;20028;-86
2022/06/15 00:43:00;;;;;;;373.15;356.15;;;12.10;99.90;;;;;;5037175;28;20489;-86
2022/06/15 00:45:26;;;;;;;370.33;352.92;;;12.10;99.90;;;;;;5022476;28;20489;-87
2022/06/15 00:47:52;;;;;;;364.30;347.88;;;12.10;99.90;;;;;;5023034;28;20485;-87
2022/06/15 00:50:21;;;;;;;371.17;354.23;;;12.10;99.90;;;;;;5037473;28;20044;-86
2022/06/15 00:52:58;;;;;;;376.65;358.50;;;12.20;99.90;;;;;;5038032;28;20520;-86
2022/06/15 00:55:28;;;;;;;379.40;361.92;;;12.10;99.90;;;;;;5034575;28;20069;-86
2022/06/15 00:57:54;;;;;;;382.95;365.73;;;12.10;99.90;;;;;;5028157;28;20029;-87
2022/06/15 01:00:21;;;;;;;367.85;350.35;;;12.00;99.90;;;;;;5032410;28;20075;-86
2022/06/15 01:02:47;;;;;;;368.10;350.33;;;11.80;99.90;;;;;;5031272;28;20029;-86
2022/06/15 01:05:17;;;;;;;354.92;338.67;;;11.60;99.90;;;;;;5014942;28;20041;-85
2022/06/15 01:08:09;;;;;;;350.17;333.83;;;11.50;99.90;;;;;;5030727;28;20052;-87
2022/06/15 01:11:19;;;;;;;378.35;361.05;;;11.50;99.90;;;;;;5045323;28;20051;-86
2022/06/15 01:13:59;;;;;;;359.58;344.08;;;11.60;99.90;;;;;;5039899;28;20104;-85
2022/06/15 01:16:47;;;;;;;348.70;333.27;;;11.80;99.90;;;;;;5042399;28;20029;-87
2022/06/15 01:19:24;;;;;;;340.90;326.00;;;11.90;99.90;;;;;;5036733;28;20108;-86
2022/06/15 01:22:07;;;;;;;355.48;339.85;;;12.00;99.90;;;;;;5039013;28;20131;-86
2022/06/15 01:24:32;;;;;;;364.15;348.02;;;12.00;99.90;;;;;;5035314;28;20031;-86
2022/06/15 01:27:32;;;;;;;354.33;337.45;;;12.00;99.90;;;;;;5034092;28;20037;-87
2022/06/15 01:30:10;;;;;;;358.42;342.73;;;12.00;99.90;;;;;;5028286;28;20052;-87
2022/06/15 01:32:45;;;;;;;373.65;356.52;;;12.00;99.90;;;;;;5044767;28;20033;-86
2022/06/15 01:35:22;;;;;;;351.88;336.50;;;12.00;99.90;;;;;;5030321;28;20033;-86
2022/06/15 01:38:21;;;;;;;348.77;333.27;;;12.00;99.90;;;;;;5029519;28;20067;-86
2022/06/15 01:41:07;;;;;;;344.90;329.95;;;12.00;99.90;;;;;;5045584;28;20020;-86
2022/06/15 01:43:40;;;;;;;359.98;344.33;;;11.90;99.90;;;;;;5040848;28;20211;-86
2022/06/15 01:46:07;;;;;;;382.63;365.55;;;11.90;99.90;;;;;;5035621;28;20075;-86
2022/06/15 01:48:34;;;;;;;356.42;341.02;;;11.90;99.90;;;;;;5035611;28;20167;-85
2022/06/15 01:51:07;;;;;;;352.10;335.85;;;11.90;99.90;;;;;;5036062;28;20040;-86
2022/06/15 01:53:43;;;;;;;363.30;346.75;;;12.00;99.90;;;;;;5030641;28;20715;-85
2022/06/15 01:56:21;;;;;;;404.30;385.05;;;11.90;99.90;;;;;;5030210;28;20037;-86
2022/06/15 01:58:53;;;;;;;349.23;333.80;;;11.90;99.90;;;;;;5026616;28;20120;-86
2022/06/15 02:01:26;;;;;;;362.70;346.88;;;11.90;99.90;;;;;;5028306;28;20451;-86
2022/06/15 02:04:17;;;;;;;222.68;213.23;;;11.90;99.90;;;;;;5027744;28;20505;-86
2022/06/15 02:07:17;;;;;;;223.25;214.02;;;12.00;99.90;;;;;;5020183;28;20047;-86
2022/06/15 02:09:52;;;;;;;225.73;216.02;;;11.90;99.90;;;;;;5038973;28;20039;-86
2022/06/15 02:12:23;;;;;;;223.65;214.07;;;11.90;99.90;;;;;;5043817;28;20037;-86
2022/06/15 02:14:52;;;;;;;241.85;231.88;;;11.90;99.90;;;;;;5040316;28;20029;-85
2022/06/15 02:17:23;;;;;;;239.10;228.55;;;11.80;99.90;;;;;;5038790;28;20060;-86
2022/06/15 02:19:53;;;;;;;237.50;225.85;;;11.80;99.90;;;;;;5036296;28;20022;-86
2022/06/15 02:22:23;;;;;;;236.97;226.33;;;11.60;99.90;;;;;;5033614;28;20387;-86
2022/06/15 02:24:53;;;;;;;232.53;222.53;;;11.40;99.90;;;;;;5034429;28;20115;-86
2022/06/15 02:27:21;;;;;;;222.82;213.48;;;11.30;99.90;;;;;;5030218;28;20033;-86
2022/06/15 02:29:50;;;;;;;246.65;235.80;;;11.20;99.90;;;;;;5015975;28;20167;-86
2022/06/15 02:32:18;;;;;;;247.15;236.18;;;11.30;99.90;;;;;;5023166;28;20135;-86
2022/06/15 02:34:44;;;;;;;241.07;230.75;;;11.30;99.90;;;;;;5026590;28;20022;-86
2022/06/15 02:37:11;;;;;;;244.48;233.65;;;11.20;99.90;;;;;;5024922;28;20057;-85
2022/06/15 02:39:37;;;;;;;250.65;239.85;;;11.20;99.90;;;;;;5032488;28;20074;-85
2022/06/15 02:42:25;;;;;;;231.52;221.68;;;11.20;99.90;;;;;;5041516;28;20484;-85
2022/06/15 02:44:54;;;;;;;222.80;213.23;;;11.10;99.90;;;;;;5040012;28;20025;-86
2022/06/15 02:47:22;;;;;;;234.88;224.77;;;11.00;99.90;;;;;;5039970;28;20036;-86
2022/06/15 02:49:51;;;;;;;251.63;240.32;;;11.00;99.90;;;;;;5032571;28;20246;-85
2022/06/15 02:52:20;;;;;;;228.90;219.25;;;10.90;99.90;;;;;;5034327;28;20330;-85
2022/06/15 02:54:49;;;;;;;238.55;227.40;;;10.80;99.90;;;;;;5033010;28;20036;-85
2022/06/15 02:57:17;;;;;;;226.90;217.07;;;10.70;99.90;;;;;;5024691;28;20033;-86
2022/06/15 02:59:45;;;;;;;228.02;218.30;;;10.70;99.90;;;;;;5032748;28;20108;-85
2022/06/15 03:02:14;;;;;;;244.20;233.40;;;10.60;99.90;;;;;;5028800;28;20041;-85
2022/06/15 03:04:43;;;;;;;242.90;232.20;;;10.60;99.90;;;;;;5022024;28;20159;-86
2022/06/15 03:07:11;;;;;;;218.35;209.07;;;10.50;99.90;;;;;;5026497;28;20551;-86
2022/06/15 03:09:37;;;;;;;233.05;223.25;;;10.50;99.90;;;;;;5035310;28;20028;-86
2022/06/15 03:12:03;;;;;;;245.40;234.77;;;10.40;99.90;;;;;;5039906;28;20033;-86
2022/06/15 03:14:29;;;;;;;225.73;216.02;;;10.50;99.90;;;;;;5040473;28;20041;-86
2022/06/15 03:16:54;;;;;;;254.23;243.00;;;10.40;99.90;;;;;;5035216;28;20033;-86
2022/06/15 03:19:20;;;;;;;241.68;231.43;;;10.50;99.90;;;;;;5034769;28;20778;-86
2022/06/15 03:21:45;;;;;;;233.07;222.98;;;10.50;99.90;;;;;;5034225;28;20297;-86
2022/06/15 03:24:11;;;;;;;229.48;219.65;;;10.60;99.90;;;;;;5017173;28;20028;-86
2022/06/15 03:26:37;;;;;;;245.23;234.48;;;10.60;99.90;;;;;;5033423;28;20032;-85
2022/06/15 03:29:02;;;;;;;240.02;229.95;;;10.50;99.90;;;;;;5036807;28;20045;-86
2022/06/15 03:31:29;;;;;;;240.68;230.40;;;10.50;99.90;;;;;;5029689;28;20036;-86
2022/06/15 03:33:54;;;;;;;226.30;216.52;;;10.40;99.90;;;;;;5026571;28;20204;-86
2022/06/15 03:36:20;;;;;;;229.68;219.82;;;10.40;99.90;;;;;;5031217;28;20072;-85
2022/06/15 03:38:46;;;;;;;219.73;210.20;;;10.40;99.90;;;;;;5047308;28;20385;-86
2022/06/15 03:41:12;;;;;;;252.70;241.63;;;10.30;99.90;;;;;;5042498;28;20021;-88
2022/06/15 03:43:39;;;;;;;221.45;212.13;;;10.40;99.90;;;;;;5073777;28;20021;-86
2022/06/15 03:46:05;;;;;;;235.80;225.48;;;10.40;99.90;;;;;;5043781;28;20116;-86
2022/06/15 03:48:30;;;;;;;239.07;228.68;;;10.30;99.90;;;;;;5024599;28;20116;-85
2022/06/15 03:50:56;;;;;;;227.98;218.05;;;10.30;99.90;;;;;;5038614;28;20030;-85
2022/06/15 03:53:22;;;;;;;233.63;223.57;;;10.50;99.90;;;;;;5031431;28;20040;-86
2022/06/15 03:55:47;;;;;;;220.80;211.35;;;10.50;99.90;;;;;;5030903;28;20167;-85
2022/06/15 03:58:16;;;;;;;219.77;210.60;;;10.60;99.90;;;;;;5030123;28;20074;-85
2022/06/15 04:00:42;;;;;;;239.25;228.55;;;10.60;99.90;;;;;;5031273;28;20136;-85
2022/06/15 04:03:08;;;;;;;242.30;231.98;;;10.40;99.90;;;;;;5033558;28;20032;-85
2022/06/15 04:05:41;;;;;;;235.98;225.77;;;10.50;99.90;;;;;;5023528;28;20030;-88
2022/06/15 04:10:58;;;;;;;226.57;216.60;;;10.60;99.90;;;;;;5044588;28;20045;-86
2022/06/15 04:13:23;;;;;;;239.13;229.00;;;10.60;99.90;;;;;;5041907;28;20025;-85
2022/06/15 04:15:49;;;;;;;230.93;220.48;;;10.70;99.90;;;;;;5041592;28;20041;-85
2022/06/15 04:18:15;;;;;;;243.98;233.27;;;10.80;99.90;;;;;;5040604;28;20108;-86
2022/06/15 04:20:41;;;;;;;236.98;226.10;;;10.90;99.90;;;;;;5040539;28;20459;-86
2022/06/15 04:23:13;;;;;;;228.30;218.45;;;11.10;99.90;;;;;;5035398;28;20021;-86
2022/06/15 04:26:01;;;;;;;260.77;249.45;;;11.30;99.90;;;;;;5032494;28;20035;-86
2022/06/15 04:28:30;;;;;;;226.80;217.13;;;11.50;99.90;;;;;;5036100;28;20148;-85
2022/06/15 04:30:55;;;;;;;238.82;228.18;;;11.70;99.90;;;;;;5026216;28;20124;-86
2022/06/15 04:33:23;;;;;;;255.43;244.50;;;11.80;99.90;;;;;;5034136;28;20116;-85
2022/06/15 04:35:49;;;;;;;262.17;251.05;;;12.00;99.90;;;;;;5026059;28;20117;-86
2022/06/15 04:38:14;;;;;;;239.98;228.98;;;12.20;99.90;;;;;;5031520;28;20113;-85
2022/06/15 04:40:40;;;;;;;252.50;241.52;;;12.30;99.90;;;;;;5044931;28;20041;-85
2022/06/15 04:43:08;;;;;;;254.15;243.13;;;12.50;99.90;;;;;;5038469;28;20094;-85
2022/06/15 04:45:35;;;;;;;256.73;245.65;;;12.60;99.90;;;;;;5040182;28;20045;-85
2022/06/15 04:48:01;;;;;;;272.50;260.17;;;12.70;99.90;;;;;;5038178;28;20405;-86
2022/06/15 04:50:28;;;;;;;262.58;249.38;;;12.80;99.90;;;;;;5037560;28;20064;-84
2022/06/15 04:52:54;;;;;;;259.63;248.13;;;12.90;99.90;;;;;;5016257;28;20117;-85
2022/06/15 04:55:21;;;;;;;278.73;266.70;;;13.00;99.90;;;;;;5033926;28;20113;-86
2022/06/15 04:57:48;;;;;;;261.90;249.88;;;13.10;99.90;;;;;;5034100;28;20049;-86
2022/06/15 05:00:17;;;;;;;268.50;256.98;;;13.20;99.90;;;;;;5031367;28;20048;-85
2022/06/15 05:02:44;;;;;;;280.17;267.35;;;13.30;99.90;;;;;;5029826;28;20204;-85
2022/06/15 05:05:11;;;;;;;272.35;260.30;;;13.40;99.90;;;;;;5023486;28;20025;-86
2022/06/15 05:07:37;;;;;;;251.02;240.20;;;13.50;99.90;;;;;;5035183;28;20363;-85
2022/06/15 05:10:04;;;;;;;257.83;246.68;;;13.60;99.90;;;;;;5044411;28;20370;-85
2022/06/15 05:12:30;;;;;;;268.05;255.80;;;13.70;99.90;;;;;;5042781;28;20029;-86
2022/06/15 05:14:56;;;;;;;283.45;271.17;;;13.90;99.90;;;;;;5037621;28;20099;-86
2022/06/15 05:17:23;;;;;;;284.67;271.98;;;13.90;99.90;;;;;;5036065;28;20432;-86
2022/06/15 05:19:49;;;;;;;282.98;270.70;;;14.00;99.90;;;;;;5034422;28;20052;-86
2022/06/15 05:22:15;;;;;;;306.40;293.02;;;14.00;99.90;;;;;;5035567;28;20021;-85
2022/06/15 05:24:41;;;;;;;267.25;255.75;;;14.10;99.90;;;;;;5034555;28;20577;-85
2022/06/15 05:27:08;;;;;;;283.02;270.35;;;14.20;99.20;;;;;;5033325;28;20033;-86
2022/06/15 05:29:35;;;;;;;307.15;292.23;;;14.20;99.90;;;;;;5027919;28;20493;-85
2022/06/15 05:32:03;;;;;;;307.25;293.13;;;14.40;99.90;;;;;;5022311;28;20085;-85
2022/06/15 05:34:28;;;;;;;336.13;319.42;;;14.60;99.90;;;;;;5025613;28;20132;-85
2022/06/15 05:36:54;;;;;;;364.52;345.27;;;14.70;99.90;;;;;;5034796;28;20559;-85
2022/06/15 05:39:20;;;;;;;344.17;327.25;;;14.70;99.90;;;;;;5073664;28;20039;-85
2022/06/15 05:41:49;;;;;;;364.30;345.88;;;14.70;99.90;;;;;;5042547;28;20262;-85
2022/06/15 05:44:21;;;;;;;337.52;320.90;;;14.80;99.90;;;;;;5036738;28;20028;-85
2022/06/15 05:46:47;;;;;;;341.85;325.70;;;14.90;99.90;;;;;;5039044;28;20106;-85
2022/06/15 05:49:13;;;;;;;369.10;349.88;;;15.00;99.60;;;;;;5018374;28;20134;-86
2022/06/15 05:51:41;;;;;;;392.92;371.85;;;15.10;99.10;;;;;;5033964;28;20029;-86
2022/06/15 05:54:07;;;;;;;314.35;299.98;;;15.00;98.60;;;;;;5033371;28;20480;-84
2022/06/15 05:56:33;;;;;;;367.90;350.33;;;15.20;98.10;;;;;;5033563;28;20033;-85
2022/06/15 05:58:59;;;;;;;365.30;347.38;;;15.40;97.10;;;;;;5030357;28;20034;-85
2022/06/15 06:01:28;;;;;;;345.55;328.52;;;15.40;96.90;;;;;;5028084;28;20034;-85
2022/06/15 06:03:54;;;;;;;388.88;368.00;;;15.40;96.50;;;;;;5029204;28;20340;-85
2022/06/15 06:06:20;;;;;;;349.67;332.10;;;15.50;98.40;;;;;;5036880;28;20144;-85
2022/06/15 06:08:46;;;;;;;316.92;299.90;;;15.70;94.90;;;;;;5038995;28;20032;-85
2022/06/15 06:11:12;;;;;;;413.73;391.58;;;15.70;93.80;;;;;;5039209;28;20382;-85
2022/06/15 06:13:38;;;;;;;377.08;357.02;;;15.70;96.00;;;;;;5039295;28;20354;-85
2022/06/15 06:16:04;;;;;;;373.33;353.45;;;15.80;93.50;;;;;;5020856;28;20484;-85
2022/06/15 06:18:30;;;;;;;377.42;358.67;;;15.70;93.30;;;;;;5033548;28;20087;-85
2022/06/15 06:20:55;;;;;;;359.17;340.92;;;15.90;93.00;;;;;;5034946;28;20025;-85
2022/06/15 06:23:21;;;;;;;383.13;362.77;;;16.10;92.40;;;;;;5032809;28;20539;-86
2022/06/15 06:25:50;;;;;;;542.78;508.23;;;16.40;91.80;;;;;;5022721;28;20021;-86
2022/06/15 06:28:38;;;;;;;593.58;554.88;;;16.50;97.30;;;;;;5013987;28;20120;-85
2022/06/15 06:31:05;;;;;;;445.48;421.05;;;16.40;96.40;;;;;;5026843;28;20096;-85
2022/06/15 06:33:33;;;;;;;425.17;400.70;;;16.20;97.60;;;;;;5022407;28;20037;-86
2022/06/15 06:36:03;;;;;;;568.05;531.10;;;16.40;96.50;;;;;;5032426;28;20040;-86
2022/06/15 06:38:29;;;;;;;518.10;486.88;;;16.50;97.50;;;;;;5045043;28;20469;-86
2022/06/15 06:40:56;;;;;;;578.22;542.05;;;16.70;96.60;;;;;;5028369;28;20040;-85
2022/06/15 06:43:22;;;;;;;465.50;439.27;;;16.80;97.40;;;;;;5031321;28;20477;-86
2022/06/15 06:45:49;;;;;;;468.77;442.30;;;16.90;94.70;;;;;;5037785;28;20079;-86
2022/06/15 06:48:15;;;;;;;640.35;597.45;;;17.00;94.60;;;;;;5036450;28;20033;-85
2022/06/15 06:50:41;;;;;;;537.00;504.52;;;17.10;97.60;;;;;;5030444;28;20025;-86
2022/06/15 06:53:09;;;;;;;568.72;530.95;;;17.40;94.70;;;;;;5032908;28;20120;-86
2022/06/15 06:55:35;;;;;;;692.53;641.70;;;17.40;95.50;;;;;;5015302;28;20025;-86
2022/06/15 06:58:01;;;;;;;580.60;542.53;;;17.40;95.30;;;;;;5028415;28;20035;-86
2022/06/15 07:00:29;;;;;;;567.85;532.15;;;17.70;95.00;;;;;;5028411;28;20527;-86
2022/06/15 07:02:54;;;;;;;566.53;531.97;;;17.80;93.50;;;;;;5026768;28;20570;-86
2022/06/15 07:05:20;;;;;;;579.10;542.78;;;18.00;94.50;;;;;;5025374;28;20025;-86
2022/06/15 07:07:46;;;;;;;692.58;641.30;;;18.00;93.30;;;;;;5039636;28;20303;-86
2022/06/15 07:10:13;;;;;;;664.95;618.25;;;18.20;96.10;;;;;;5036711;28;20119;-86
2022/06/15 07:12:42;;;;;;;559.55;522.97;;;18.30;94.00;;;;;;5040621;28;20025;-86
2022/06/15 07:15:09;;;;;;;635.40;592.53;;;18.40;90.00;;;;;;5031602;28;20025;-89
2022/06/15 07:17:35;;;;;;;577.33;540.58;;;18.50;91.50;;;;;;5034942;28;20049;-86
2022/06/15 07:20:00;;;;;;;718.50;666.42;;;18.60;85.00;;;;;;5032405;28;20497;-85
2022/06/15 07:22:26;;;;;;;455.48;428.73;;;18.70;94.10;;;;;;5015308;28;20029;-87
2022/06/15 07:24:52;;;;;;;721.80;669.58;;;18.80;86.70;;;;;;5032735;28;20485;-87
2022/06/15 07:27:18;;;;;;;629.30;585.78;;;18.90;91.40;;;;;;5030305;28;20072;-86
2022/06/15 07:29:46;;;;;;;602.85;562.00;;;19.00;87.90;;;;;;5031181;28;20208;-86
2022/06/15 07:32:13;;;;;;;637.13;591.53;;;19.10;85.80;;;;;;5025116;28;20068;-87
2022/06/15 07:34:40;;;;;;;614.45;570.28;;;19.30;87.30;;;;;;5030543;28;20057;-85
2022/06/15 07:37:07;;;;;;;539.83;504.92;;;19.50;84.40;;;;;;5033617;28;20086;-84
2022/06/15 07:39:33;;;;;;;605.50;565.50;;;19.70;84.50;;;;;;5036448;28;20021;-86
2022/06/15 07:41:59;;;;;;;693.75;642.83;;;19.90;80.60;;;;;;5041569;28;20123;-85
2022/06/15 07:44:27;;;;;;;594.55;552.47;;;19.90;86.80;;;;;;5034853;28;20032;-85
2022/06/15 07:49:54;;;;;;;586.75;547.25;;;20.10;76.40;;;;;;5036915;28;20025;-86
2022/06/15 07:49:54;;;;;;;553.92;518.72;;;20.10;75.90;;;;;;5035078;28;20120;-86
2022/06/15 07:52:25;;;;;;;702.38;648.22;;;20.20;74.70;;;;;;5031876;28;20036;-86
2022/06/15 07:54:52;;;;;;;642.22;594.33;;;20.30;76.70;;;;;;5027994;28;20028;-87
2022/06/15 07:57:18;;;;;;;1999.90;873.95;;;20.50;77.60;;;;;;5025334;28;20048;-86
2022/06/15 07:59:44;;;;;;;1622.70;905.65;;;20.50;88.80;;;;;;5031848;28;20473;-86
2022/06/15 08:02:10;;;;;;;1430.63;731.22;;;20.80;77.00;;;;;;5027226;28;20041;-87
2022/06/15 08:04:36;;;;;;;1995.40;999.90;;;20.90;73.80;;;;;;5026617;28;20053;-86
2022/06/15 08:07:02;;;;;;;1870.32;989.05;;;21.10;74.40;;;;;;5041327;28;20526;-86
2022/06/15 08:09:28;;;;;;;1999.90;999.90;;;21.20;74.20;;;;;;5023292;28;20056;-87
2022/06/15 08:12:11;;;;;;;1999.75;999.90;;;21.30;73.50;;;;;;5040562;28;20593;-87
2022/06/15 08:14:44;;;;;;;1999.90;999.90;;;21.40;73.10;;;;;;5029237;28;20160;-86
2022/06/15 08:17:15;;;;;;;1765.80;999.90;;;21.80;73.30;;;;;;5036301;28;20067;-86
2022/06/15 08:19:45;;;;;;;1960.25;921.35;;;21.90;74.30;;;;;;5038855;28;20492;-85
2022/06/15 08:22:11;;;;;;;1999.90;978.73;;;21.80;71.60;;;;;;5027035;28;20040;-86
2022/06/15 08:24:38;;;;;;;1999.90;977.38;;;21.90;75.10;;;;;;5037598;28;20882;-85
2022/06/15 08:27:04;;;;;;;1999.90;999.90;;;21.80;73.30;;;;;;5033494;28;20045;-86
2022/06/15 08:29:31;;;;;;;1999.90;999.90;;;22.20;68.50;;;;;;5011066;28;20041;-86
2022/06/15 08:31:57;;;;;;;1999.90;850.67;;;22.40;75.80;;;;;;5029378;28;20042;-85
2022/06/15 08:34:28;;;;;;;1999.90;933.58;;;22.50;66.40;;;;;;5031820;28;20092;-85
2022/06/15 08:36:54;;;;;;;1999.90;972.17;;;22.70;71.30;;;;;;5040258;28;20029;-85
2022/06/15 08:39:20;;;;;;;1999.90;999.90;;;22.90;71.40;;;;;;5046286;28;20143;-85
2022/06/15 08:42:04;;;;;;;1999.90;999.90;;;22.70;65.60;;;;;;5024681;28;20523;-85
2022/06/15 08:44:45;;;;;;;1999.90;999.90;;;22.90;67.00;;;;;;5033433;28;20056;-87
2022/06/15 08:47:44;;;;;;;1999.90;999.90;;;23.40;79.10;;;;;;5037645;28;20078;-86
2022/06/15 08:50:35;;;;;;;1999.90;999.90;;;23.30;73.50;;;;;;5034691;28;20098;-86
2022/06/15 08:53:15;;;;;;;1999.90;999.90;;;23.40;68.00;;;;;;5028897;28;20026;-85
2022/06/15 08:55:57;;;;;;;1999.90;999.90;;;23.50;67.00;;;;;;5030526;28;20475;-86
2022/06/15 08:58:52;;;;;;;994.30;335.88;;;23.70;70.80;;;;;;5028964;28;20030;-85
2022/06/15 09:01:30;;;;;;;1999.90;999.90;;;23.70;63.20;;;;;;5026856;28;20177;-85
2022/06/15 09:04:07;;;;;;;1999.90;999.90;;;24.00;66.20;;;;;;5026582;28;20484;-85
2022/06/15 09:06:57;;;;;;;1999.90;999.90;;;23.80;62.90;;;;;;5043169;28;20116;-85
2022/06/15 09:09:52;;;;;;;1999.90;999.90;;;24.00;69.30;;;;;;5041452;28;20567;-85
2022/06/15 09:12:53;;;;;;;1999.90;999.90;;;24.00;69.10;;;;;;5037814;28;20558;-85
2022/06/15 09:15:24;;;;;;;1999.90;999.90;;;24.10;66.20;;;;;;5033821;28;20021;-86
2022/06/15 09:17:51;;;;;;;1999.90;999.90;;;24.80;67.70;;;;;;5039061;28;20040;-85
2022/06/15 09:20:26;;;;;;;1999.90;999.90;;;24.80;62.60;;;;;;5031043;28;20071;-86
2022/06/15 09:23:00;;;;;;;1999.90;999.90;;;25.10;62.20;;;;;;5033668;28;20026;-86
2022/06/15 09:25:35;;;;;;;1999.90;999.90;;;24.80;58.80;;;;;;5032241;28;20231;-86
2022/06/15 09:28:20;;;;;;;1999.90;999.90;;;24.90;60.80;;;;;;5027235;28;20030;-86
2022/06/15 09:30:47;;;;;;;1999.90;999.90;;;25.00;67.10;;;;;;5012278;28;20034;-87
2022/06/15 09:33:28;;;;;;;1999.90;999.90;;;25.00;59.10;;;;;;5027366;28;20326;-86
2022/06/15 09:36:02;;;;;;;1999.90;999.90;;;25.20;61.00;;;;;;5034707;28;20256;-85
2022/06/15 09:38:30;;;;;;;1999.90;999.90;;;25.70;60.70;;;;;;5036719;28;20017;-85
2022/06/15 09:41:16;;;;;;;1999.90;999.90;;;25.60;57.80;;;;;;5038528;28;20047;-86
2022/06/15 09:44:12;;;;;;;1999.90;999.90;;;25.70;58.20;;;;;;5040013;28;20024;-86
2022/06/15 09:47:06;;;;;;;1999.90;999.90;;;25.70;59.50;;;;;;5039108;28;20029;-86
2022/06/15 09:49:56;;;;;;;1999.90;999.90;;;25.90;58.30;;;;;;5034497;28;20030;-87
2022/06/15 09:52:25;;;;;;;;;;;26.00;55.00;;;;;;5036834;28;20059;-86
2022/06/15 09:54:53;;;;;;;1999.90;999.90;;;26.30;56.60;;;;;;5032705;28;19909;-86
2022/06/15 09:57:20;;;;;;;1999.90;999.90;;;26.70;55.10;;;;;;5030587;28;20040;-86
2022/06/15 09:59:46;;;;;;;1999.90;999.90;;;26.60;57.70;;;;;;5019428;28;20079;-85
2022/06/15 10:02:30;;;;;;;1999.90;999.90;;;26.60;55.30;;;;;;5027061;28;20041;-85
2022/06/15 10:04:57;;;;;;;1999.90;999.90;;;26.60;57.40;;;;;;5033404;28;20017;-87
2022/06/15 10:07:35;;;;;;;1999.90;999.90;;;26.70;55.00;;;;;;5041464;28;20177;-86
2022/06/15 10:10:15;;;;;;;1999.90;999.90;;;26.70;54.10;;;;;;5040986;28;20060;-86
2022/06/15 10:13:02;;;;;;;1999.90;999.90;;;26.70;53.10;;;;;;5023558;28;20033;-86
2022/06/15 10:15:43;;;;;;;1999.90;999.90;;;26.90;58.00;;;;;;5037340;28;20027;-86
2022/06/15 10:18:36;;;;;;;1999.90;999.90;;;27.30;56.50;;;;;;5028177;28;20049;-86
2022/06/15 10:21:13;;;;;;;1999.90;999.90;;;27.20;52.30;;;;;;5020948;28;20025;-85
2022/06/15 10:23:58;;;;;;;1999.90;999.90;;;27.10;53.00;;;;;;5042021;28;20462;-86
2022/06/15 10:26:35;;;;;;;1999.90;999.90;;;27.30;55.80;;;;;;5044055;28;20026;-86
2022/06/15 10:29:15;;;;;;;1999.90;999.90;;;27.60;56.00;;;;;;5016157;28;20037;-86
2022/06/15 10:32:02;;;;;;;1999.90;999.90;;;27.90;47.80;;;;;;5014696;28;20083;-87
2022/06/15 10:34:49;;;;;;;1999.90;999.90;;;28.30;50.30;;;;;;5035725;28;20398;-86
2022/06/15 10:37:32;;;;;;;1999.90;999.90;;;28.50;51.40;;;;;;5014741;28;20220;-86
2022/06/15 10:40:01;;;;;;;1999.90;999.90;;;27.90;52.60;;;;;;5017125;28;20076;-86
2022/06/15 10:42:42;;;;;;;1999.90;999.90;;;28.10;47.00;;;;;;5034563;28;20048;-86
2022/06/15 10:45:18;;;;;;;1999.90;999.90;;;28.30;50.50;;;;;;5020050;28;20040;-85
2022/06/15 10:47:51;;;;;;;1999.90;999.90;;;28.20;50.90;;;;;;5021320;28;20028;-86
2022/06/15 10:50:26;;;;;;;1999.90;999.90;;;28.10;54.80;;;;;;5028947;28;20477;-86
2022/06/15 10:53:03;;;;;;;1999.90;999.90;;;28.30;48.40;;;;;;5027293;28;20276;-86
2022/06/15 11:04:28;;;;;;;1999.90;999.90;;;29.70;38.40;;;;;;5030516;28;20060;-85
2022/06/15 11:07:03;;;;;;;1999.90;999.90;;;30.00;40.10;;;;;;5042670;28;20028;-87
2022/06/15 11:09:53;;;;;;;1999.90;999.90;;;30.60;40.90;;;;;;5042562;28;20134;-86
2022/06/15 11:12:26;;;;;;;1999.90;999.90;;;30.70;40.10;;;;;;5031185;28;20039;-87
2022/06/15 11:14:55;;;;;;;1999.90;999.90;;;30.90;40.00;;;;;;5050539;28;20419;-86
2022/06/15 11:20:25;;;;;;;1999.90;999.90;;;31.10;33.50;;;;;;5030688;28;20550;-87
2022/06/15 11:22:55;;;;;;;1999.90;999.90;;;31.00;35.20;;;;;;5031385;28;20029;-84
2022/06/15 11:25:33;;;;;;;1999.90;999.90;;;30.60;36.80;;;;;;5012729;28;20022;-87
2022/06/15 11:28:04;;;;;;;1999.90;999.90;;;31.40;35.10;;;;;;5029849;28;20211;-86
2022/06/15 11:30:38;;;;;;;1999.90;999.90;;;32.10;31.10;;;;;;5026373;28;20022;-87
2022/06/15 11:33:06;;;;;;;1999.90;999.90;;;31.70;32.10;;;;;;5026496;28;20037;-86
2022/06/15 11:35:56;;;;;;;1999.90;999.90;;;31.90;36.00;;;;;;5041674;28;20401;-87
2022/06/15 11:39:10;;;;;;;1999.90;999.90;;;32.20;29.20;;;;;;5034499;28;20084;-87
2022/06/15 11:41:51;;;;;;;1999.90;999.90;;;32.20;35.20;;;;;;5021762;28;20033;-87
2022/06/15 11:44:27;;;;;;;1999.90;999.90;;;32.10;31.00;;;;;;5038030;28;20060;-88
2022/06/15 11:47:02;;;;;;;1999.90;999.90;;;32.10;36.70;;;;;;5033621;28;20025;-86
2022/06/15 11:49:39;;;;;;;1999.90;999.90;;;34.00;30.90;;;;;;5034634;28;20064;-87
2022/06/15 11:52:40;;;;;;;1999.90;999.90;;;34.40;31.00;;;;;;5032043;28;20544;-87
2022/06/15 11:55:41;;;;;;;1999.90;999.90;;;33.20;30.00;;;;;;5033996;28;20037;-87
2022/06/15 11:58:09;;;;;;;1999.90;999.90;;;33.00;32.20;;;;;;5032931;28;20484;-87
2022/06/15 12:00:56;;;;;;;1999.90;999.90;;;33.50;33.60;;;;;;5033983;28;20054;-87
2022/06/15 12:03:30;;;;;;;1999.90;999.90;;;33.40;27.80;;;;;;5030625;28;20120;-87
2022/06/15 12:06:06;;;;;;;1999.90;999.90;;;33.30;29.50;;;;;;5046144;28;20028;-88
2022/06/15 12:08:52;;;;;;;1999.90;999.90;;;34.10;27.50;;;;;;5041519;28;20480;-88
2022/06/15 12:14:32;;;;;;;1999.90;999.90;;;33.60;25.80;;;;;;5037196;28;20107;-87
2022/06/15 12:17:21;;;;;;;1999.90;999.90;;;33.30;27.90;;;;;;5037743;28;20056;-85
2022/06/15 12:20:19;;;;;;;1999.90;999.90;;;33.20;26.20;;;;;;5031114;28;20025;-87
2022/06/15 12:23:26;;;;;;;1999.90;999.90;;;33.60;27.60;;;;;;5035326;28;20082;-85
2022/06/15 12:26:05;;;;;;;1999.90;999.90;;;34.60;25.60;;;;;;5014762;28;20041;-86
2022/06/15 12:28:37;;;;;;;1999.90;999.90;;;35.50;25.20;;;;;;5052650;28;20426;-85
2022/06/15 12:31:41;;;;;;;1999.90;999.90;;;35.00;25.00;;;;;;5028667;28;20501;-86
2022/06/15 12:34:17;;;;;;;1999.90;999.90;;;35.20;25.20;;;;;;5031652;28;20134;-86
2022/06/15 12:36:53;;;;;;;1999.90;999.90;;;35.20;26.00;;;;;;5043456;28;20037;-86
2022/06/15 12:39:30;;;;;;;1999.90;999.90;;;35.50;25.00;;;;;;5040965;28;20384;-86
2022/06/15 12:42:12;;;;;;;1999.90;999.90;;;35.80;25.20;;;;;;5038749;28;20040;-85
2022/06/15 12:44:56;;;;;;;1999.90;999.90;;;35.40;26.80;;;;;;5037871;28;20079;-86
2022/06/15 12:47:24;;;;;;;1999.90;999.90;;;34.90;24.80;;;;;;5028074;28;20025;-85
2022/06/15 12:50:26;;;;;;;1999.90;999.90;;;35.50;24.50;;;;;;5035480;28;20032;-86